sensor_id;sensor_type;location;lat;lon;timestamp;pressure;altitude;pressure_sealevel;temperature;humidity
1652;BME280;823;49.028;8.454;2023-05-01T00:04:51;100381.50;;;14.79;54.00
1652;BME280;823;49.028;8.454;2023-05-01T00:09:51;100374.00;;;14.73;53.90
1652;BME280;823;49.028;8.454;2023-05-01T00:14:54;100376.41;;;14.59;54.47
1652;BME280;823;49.028;8.454;2023-05-01T00:19:54;100365.84;;;14.63;54.06
1652;BME280;823;49.028;8.454;2023-05-01T00:24:55;100367.63;;;14.61;54.65
1652;BME280;823;49.028;8.454;2023-05-01T00:29:55;100359.75;;;14.45;54.74
1652;BME280;823;49.028;8.454;2023-05-01T00:34:55;100352.63;;;14.49;54.33
1652;BME280;823;49.028;8.454;2023-05-01T00:39:56;100356.28;;;14.45;54.83
1652;BME280;823;49.028;8.454;2023-05-01T00:44:57;100342.44;;;14.44;54.75
1652;BME280;823;49.028;8.454;2023-05-01T00:49:58;100345.78;;;14.46;54.54
1652;BME280;823;49.028;8.454;2023-05-01T00:54:58;100338.00;;;14.46;54.10
1652;BME280;823;49.028;8.454;2023-05-01T00:59:59;100341.66;;;14.42;54.61
1652;BME280;823;49.028;8.454;2023-05-01T01:05:01;100330.25;;;14.45;54.62
1652;BME280;823;49.028;8.454;2023-05-01T01:10:07;100324.31;;;14.43;54.84
1652;BME280;823;49.028;8.454;2023-05-01T01:20:23;100307.13;;;14.56;54.73
1652;BME280;823;49.028;8.454;2023-05-01T01:31:10;100302.53;;;14.61;54.40
1652;BME280;823;49.028;8.454;2023-05-01T01:36:18;100302.50;;;14.63;54.05
1652;BME280;823;49.028;8.454;2023-05-01T01:41:25;100304.19;;;14.64;54.42
1652;BME280;823;49.028;8.454;2023-05-01T01:46:29;100298.34;;;14.59;54.33
1652;BME280;823;49.028;8.454;2023-05-01T01:51:36;100300.84;;;14.60;54.50
1652;BME280;823;49.028;8.454;2023-05-01T01:56:39;100293.44;;;14.70;54.29
1652;BME280;823;49.028;8.454;2023-05-01T02:01:42;100296.81;;;14.72;53.77
1652;BME280;823;49.028;8.454;2023-05-01T02:06:44;100297.81;;;14.70;54.38
1652;BME280;823;49.028;8.454;2023-05-01T02:11:47;100287.03;;;14.77;53.84
1652;BME280;823;49.028;8.454;2023-05-01T02:16:49;100290.63;;;14.75;53.77
1652;BME280;823;49.028;8.454;2023-05-01T02:21:51;100280.88;;;14.78;53.33
1652;BME280;823;49.028;8.454;2023-05-01T02:26:56;100284.56;;;14.74;53.06
1652;BME280;823;49.028;8.454;2023-05-01T02:32:00;100276.66;;;14.76;52.73
1652;BME280;823;49.028;8.454;2023-05-01T02:37:02;100275.91;;;14.74;52.74
1652;BME280;823;49.028;8.454;2023-05-01T02:42:04;100271.53;;;14.74;52.77
1652;BME280;823;49.028;8.454;2023-05-01T02:47:07;100260.22;;;14.75;52.73
1652;BME280;823;49.028;8.454;2023-05-01T02:52:10;100258.22;;;14.80;52.57
1652;BME280;823;49.028;8.454;2023-05-01T02:57:11;100254.09;;;14.76;52.26
1652;BME280;823;49.028;8.454;2023-05-01T03:02:12;100242.16;;;14.72;51.75
1652;BME280;823;49.028;8.454;2023-05-01T03:07:12;100238.03;;;14.68;51.83
1652;BME280;823;49.028;8.454;2023-05-01T03:12:12;100239.81;;;14.50;51.66
1652;BME280;823;49.028;8.454;2023-05-01T03:17:13;100235.06;;;14.41;51.94
1652;BME280;823;49.028;8.454;2023-05-01T03:22:13;100239.00;;;14.32;52.04
1652;BME280;823;49.028;8.454;2023-05-01T03:27:14;100234.41;;;14.37;52.02
1652;BME280;823;49.028;8.454;2023-05-01T03:32:14;100241.75;;;14.29;52.02
1652;BME280;823;49.028;8.454;2023-05-01T03:37:16;100228.75;;;14.29;52.27
1652;BME280;823;49.028;8.454;2023-05-01T03:42:16;100239.38;;;14.24;52.52
1652;BME280;823;49.028;8.454;2023-05-01T03:47:17;100237.91;;;14.19;52.56
1652;BME280;823;49.028;8.454;2023-05-01T03:52:18;100230.50;;;14.28;52.42
1652;BME280;823;49.028;8.454;2023-05-01T03:57:18;100226.88;;;14.31;52.46
1652;BME280;823;49.028;8.454;2023-05-01T04:02:22;100223.06;;;14.38;52.53
1652;BME280;823;49.028;8.454;2023-05-01T04:07:23;100223.38;;;14.32;52.33
1652;BME280;823;49.028;8.454;2023-05-01T04:12:23;100232.72;;;14.36;52.19
1652;BME280;823;49.028;8.454;2023-05-01T04:17:23;100226.88;;;14.31;52.28
1652;BME280;823;49.028;8.454;2023-05-01T04:22:24;100222.50;;;14.31;52.27
1652;BME280;823;49.028;8.454;2023-05-01T04:27:24;100218.19;;;14.32;51.77
1652;BME280;823;49.028;8.454;2023-05-01T04:32:25;100217.19;;;14.35;51.63
1652;BME280;823;49.028;8.454;2023-05-01T04:37:25;100228.88;;;14.43;51.31
1652;BME280;823;49.028;8.454;2023-05-01T04:42:32;100230.00;;;14.55;51.54
1652;BME280;823;49.028;8.454;2023-05-01T04:47:32;100234.59;;;14.50;51.69
1652;BME280;823;49.028;8.454;2023-05-01T04:52:33;100234.34;;;14.55;51.71
1652;BME280;823;49.028;8.454;2023-05-01T04:57:34;100234.03;;;14.61;51.36
1652;BME280;823;49.028;8.454;2023-05-01T05:02:34;100238.63;;;14.73;51.55
1652;BME280;823;49.028;8.454;2023-05-01T05:07:34;100235.09;;;14.74;51.32
1652;BME280;823;49.028;8.454;2023-05-01T05:12:35;100233.09;;;14.79;50.87
1652;BME280;823;49.028;8.454;2023-05-01T05:17:35;100236.78;;;14.75;51.25
1652;BME280;823;49.028;8.454;2023-05-01T05:22:35;100241.09;;;14.92;50.50
1652;BME280;823;49.028;8.454;2023-05-01T05:27:38;100239.84;;;15.00;50.68
1652;BME280;823;49.028;8.454;2023-05-01T05:32:39;100243.22;;;15.18;50.61
1652;BME280;823;49.028;8.454;2023-05-01T05:37:39;100241.28;;;15.37;49.88
1652;BME280;823;49.028;8.454;2023-05-01T05:42:39;100241.34;;;15.52;49.40
1652;BME280;823;49.028;8.454;2023-05-01T05:47:40;100244.28;;;15.61;49.33
1652;BME280;823;49.028;8.454;2023-05-01T05:52:40;100232.91;;;15.78;48.97
1652;BME280;823;49.028;8.454;2023-05-01T05:57:41;100235.56;;;15.93;48.35
1652;BME280;823;49.028;8.454;2023-05-01T06:02:42;100238.69;;;16.14;48.01
1652;BME280;823;49.028;8.454;2023-05-01T06:07:42;100246.09;;;16.22;47.79
1652;BME280;823;49.028;8.454;2023-05-01T06:12:42;100242.50;;;16.08;47.84
1652;BME280;823;49.028;8.454;2023-05-01T06:17:42;100246.28;;;16.19;47.70
1652;BME280;823;49.028;8.454;2023-05-01T06:22:43;100253.81;;;16.23;47.63
1652;BME280;823;49.028;8.454;2023-05-01T06:27:43;100244.88;;;16.27;47.95
1652;BME280;823;49.028;8.454;2023-05-01T06:32:47;100239.19;;;16.21;48.06
1652;BME280;823;49.028;8.454;2023-05-01T06:37:47;100242.56;;;16.37;47.93
1652;BME280;823;49.028;8.454;2023-05-01T06:42:48;100246.47;;;16.30;47.87
1652;BME280;823;49.028;8.454;2023-05-01T06:47:48;100248.88;;;16.33;47.08
1652;BME280;823;49.028;8.454;2023-05-01T06:52:48;100254.94;;;16.19;47.60
1652;BME280;823;49.028;8.454;2023-05-01T06:57:49;100263.72;;;16.32;47.36
1652;BME280;823;49.028;8.454;2023-05-01T07:02:49;100254.78;;;16.37;47.56
1652;BME280;823;49.028;8.454;2023-05-01T07:07:49;100250.75;;;16.31;47.49
1652;BME280;823;49.028;8.454;2023-05-01T07:12:50;100257.69;;;16.46;47.38
1652;BME280;823;49.028;8.454;2023-05-01T07:17:50;100268.88;;;16.63;47.31
1652;BME280;823;49.028;8.454;2023-05-01T07:22:51;100268.88;;;16.77;47.31
1652;BME280;823;49.028;8.454;2023-05-01T07:27:51;100267.03;;;16.94;46.73
1652;BME280;823;49.028;8.454;2023-05-01T07:32:52;100260.22;;;16.91;46.04
1652;BME280;823;49.028;8.454;2023-05-01T07:37:52;100253.41;;;16.89;46.16
1652;BME280;823;49.028;8.454;2023-05-01T07:42:54;100250.59;;;17.06;45.92
1652;BME280;823;49.028;8.454;2023-05-01T07:47:54;100255.81;;;17.06;45.83
1652;BME280;823;49.028;8.454;2023-05-01T07:52:56;100251.59;;;17.18;45.80
1652;BME280;823;49.028;8.454;2023-05-01T07:57:56;100242.16;;;17.30;46.01
1652;BME280;823;49.028;8.454;2023-05-01T08:02:56;100244.53;;;17.47;45.55
1652;BME280;823;49.028;8.454;2023-05-01T08:07:57;100251.63;;;17.73;45.85
1652;BME280;823;49.028;8.454;2023-05-01T08:12:57;100259.66;;;17.97;45.47
1652;BME280;823;49.028;8.454;2023-05-01T08:17:58;100262.13;;;18.26;44.36
1652;BME280;823;49.028;8.454;2023-05-01T08:22:58;100262.13;;;18.51;44.31
1652;BME280;823;49.028;8.454;2023-05-01T08:27:59;100254.78;;;18.69;43.75
1652;BME280;823;49.028;8.454;2023-05-01T08:32:59;100255.75;;;18.55;44.03
1652;BME280;823;49.028;8.454;2023-05-01T08:38:00;100258.97;;;18.85;43.21
1652;BME280;823;49.028;8.454;2023-05-01T08:43:01;100253.81;;;18.70;44.46
1652;BME280;823;49.028;8.454;2023-05-01T08:48:11;100259.81;;;18.72;43.43
1652;BME280;823;49.028;8.454;2023-05-01T08:53:14;100256.56;;;18.69;43.93
1652;BME280;823;49.028;8.454;2023-05-01T08:58:16;100252.28;;;18.68;44.45
1652;BME280;823;49.028;8.454;2023-05-01T09:03:19;100247.53;;;18.86;44.42
1652;BME280;823;49.028;8.454;2023-05-01T09:08:19;100247.34;;;18.76;44.91
1652;BME280;823;49.028;8.454;2023-05-01T09:13:19;100249.84;;;18.78;44.96
1652;BME280;823;49.028;8.454;2023-05-01T09:18:20;100247.91;;;19.18;44.93
1652;BME280;823;49.028;8.454;2023-05-01T09:23:20;100254.44;;;19.37;44.74
1652;BME280;823;49.028;8.454;2023-05-01T09:28:38;100246.03;;;19.69;43.34
1652;BME280;823;49.028;8.454;2023-05-01T09:33:50;100250.81;;;19.75;43.52
1652;BME280;823;49.028;8.454;2023-05-01T09:38:53;100246.63;;;19.97;43.09
1652;BME280;823;49.028;8.454;2023-05-01T09:43:55;100245.84;;;20.19;43.38
1652;BME280;823;49.028;8.454;2023-05-01T09:49:00;100251.38;;;20.27;42.86
1652;BME280;823;49.028;8.454;2023-05-01T09:54:03;100247.19;;;20.58;42.24
1652;BME280;823;49.028;8.454;2023-05-01T09:59:17;100258.69;;;20.57;42.91
1652;BME280;823;49.028;8.454;2023-05-01T10:04:32;100258.19;;;20.64;43.11
1652;BME280;823;49.028;8.454;2023-05-01T10:09:32;100260.31;;;20.24;43.57
1652;BME280;823;49.028;8.454;2023-05-01T10:14:34;100261.00;;;20.15;42.56
1652;BME280;823;49.028;8.454;2023-05-01T10:19:48;100258.56;;;20.01;43.52
1652;BME280;823;49.028;8.454;2023-05-01T10:24:49;100258.78;;;19.98;43.19
1652;BME280;823;49.028;8.454;2023-05-01T10:29:52;100261.09;;;20.02;43.34
1652;BME280;823;49.028;8.454;2023-05-01T10:34:59;100265.06;;;20.19;42.68
1652;BME280;823;49.028;8.454;2023-05-01T10:45:38;100240.66;;;20.87;41.64
1652;BME280;823;49.028;8.454;2023-05-01T10:51:07;100243.16;;;20.88;41.57
1652;BME280;823;49.028;8.454;2023-05-01T11:01:30;100242.78;;;20.93;41.15
1652;BME280;823;49.028;8.454;2023-05-01T11:06:31;100237.41;;;20.95;41.39
1652;BME280;823;49.028;8.454;2023-05-01T11:21:41;100227.44;;;21.21;40.64
1652;BME280;823;49.028;8.454;2023-05-01T11:26:42;100215.09;;;21.33;40.39
1652;BME280;823;49.028;8.454;2023-05-01T11:31:47;100219.28;;;21.35;40.22
1652;BME280;823;49.028;8.454;2023-05-01T11:36:48;100222.13;;;21.43;39.41
1652;BME280;823;49.028;8.454;2023-05-01T11:41:49;100215.13;;;21.65;38.69
1652;BME280;823;49.028;8.454;2023-05-01T11:46:55;100207.38;;;21.85;38.73
1652;BME280;823;49.028;8.454;2023-05-01T11:51:57;100198.88;;;22.23;37.05
1652;BME280;823;49.028;8.454;2023-05-01T11:56:59;100193.66;;;22.54;37.22
1652;BME280;823;49.028;8.454;2023-05-01T12:02:02;100193.00;;;22.72;36.97
1652;BME280;823;49.028;8.454;2023-05-01T12:07:03;100195.81;;;22.90;37.25
1652;BME280;823;49.028;8.454;2023-05-01T12:12:03;100188.81;;;22.69;36.81
1652;BME280;823;49.028;8.454;2023-05-01T12:17:05;100190.47;;;22.60;35.86
1652;BME280;823;49.028;8.454;2023-05-01T12:22:07;100188.03;;;22.38;36.56
1652;BME280;823;49.028;8.454;2023-05-01T12:27:07;100184.59;;;22.26;37.88
1652;BME280;823;49.028;8.454;2023-05-01T12:32:08;100192.88;;;21.90;39.90
1652;BME280;823;49.028;8.454;2023-05-01T12:37:09;100199.47;;;21.85;39.14
1652;BME280;823;49.028;8.454;2023-05-01T12:42:15;100192.78;;;21.81;38.99
1652;BME280;823;49.028;8.454;2023-05-01T12:47:17;100189.41;;;21.69;39.21
1652;BME280;823;49.028;8.454;2023-05-01T12:52:25;100193.25;;;21.65;40.14
1652;BME280;823;49.028;8.454;2023-05-01T12:57:26;100187.25;;;21.63;40.05
1652;BME280;823;49.028;8.454;2023-05-01T13:02:31;100189.31;;;21.59;39.92
1652;BME280;823;49.028;8.454;2023-05-01T13:07:32;100189.41;;;21.69;40.16
1652;BME280;823;49.028;8.454;2023-05-01T13:12:42;100185.03;;;21.79;40.21
1652;BME280;823;49.028;8.454;2023-05-01T13:17:43;100177.00;;;21.81;40.04
1652;BME280;823;49.028;8.454;2023-05-01T13:22:44;100182.38;;;21.79;40.47
1652;BME280;823;49.028;8.454;2023-05-01T13:27:49;100181.75;;;21.87;40.18
1652;BME280;823;49.028;8.454;2023-05-01T13:32:50;100173.59;;;21.69;40.05
1652;BME280;823;49.028;8.454;2023-05-01T13:37:51;100174.50;;;21.79;40.82
1652;BME280;823;49.028;8.454;2023-05-01T13:42:51;100169.88;;;21.92;40.24
1652;BME280;823;49.028;8.454;2023-05-01T13:47:53;100164.53;;;22.04;39.60
1652;BME280;823;49.028;8.454;2023-05-01T13:52:54;100158.13;;;22.27;39.30
1652;BME280;823;49.028;8.454;2023-05-01T13:57:54;100161.56;;;22.49;38.70
1652;BME280;823;49.028;8.454;2023-05-01T14:02:55;100161.59;;;22.28;39.70
1652;BME280;823;49.028;8.454;2023-05-01T14:07:58;100156.53;;;22.36;39.17
1652;BME280;823;49.028;8.454;2023-05-01T14:12:59;100148.16;;;22.31;39.07
1652;BME280;823;49.028;8.454;2023-05-01T14:18:06;100158.19;;;22.37;39.48
1652;BME280;823;49.028;8.454;2023-05-01T14:23:06;100145.81;;;22.07;39.64
1652;BME280;823;49.028;8.454;2023-05-01T14:28:07;100145.22;;;22.24;39.30
1652;BME280;823;49.028;8.454;2023-05-01T14:33:09;100156.84;;;22.22;39.08
1652;BME280;823;49.028;8.454;2023-05-01T14:38:12;100160.28;;;22.34;39.47
1652;BME280;823;49.028;8.454;2023-05-01T14:43:15;100158.31;;;22.36;38.49
1652;BME280;823;49.028;8.454;2023-05-01T14:48:21;100161.69;;;22.38;37.84
1652;BME280;823;49.028;8.454;2023-05-01T14:53:22;100163.72;;;22.34;37.68
1652;BME280;823;49.028;8.454;2023-05-01T14:58:22;100167.00;;;22.26;38.45
1652;BME280;823;49.028;8.454;2023-05-01T15:03:23;100160.94;;;22.05;38.49
1652;BME280;823;49.028;8.454;2023-05-01T15:08:23;100165.13;;;21.86;40.90
1652;BME280;823;49.028;8.454;2023-05-01T15:13:24;100154.41;;;21.57;43.09
1652;BME280;823;49.028;8.454;2023-05-01T15:18:24;100150.81;;;21.25;41.49
1652;BME280;823;49.028;8.454;2023-05-01T15:23:25;100136.06;;;21.34;41.32
1652;BME280;823;49.028;8.454;2023-05-01T15:28:28;100121.63;;;21.29;40.59
1652;BME280;823;49.028;8.454;2023-05-01T15:33:28;100136.94;;;21.23;39.98
1652;BME280;823;49.028;8.454;2023-05-01T15:38:29;100161.25;;;21.16;41.92
1652;BME280;823;49.028;8.454;2023-05-01T15:43:29;100158.44;;;21.29;41.60
1652;BME280;823;49.028;8.454;2023-05-01T15:48:29;100161.22;;;21.48;40.45
1652;BME280;823;49.028;8.454;2023-05-01T15:53:30;100166.66;;;21.68;39.49
1652;BME280;823;49.028;8.454;2023-05-01T15:58:30;100184.25;;;21.88;40.06
1652;BME280;823;49.028;8.454;2023-05-01T16:03:30;100182.13;;;22.03;39.92
1652;BME280;823;49.028;8.454;2023-05-01T16:08:31;100196.84;;;22.06;39.25
1652;BME280;823;49.028;8.454;2023-05-01T16:13:36;100207.31;;;21.96;39.67
1652;BME280;823;49.028;8.454;2023-05-01T16:18:39;100226.31;;;21.79;40.96
1652;BME280;823;49.028;8.454;2023-05-01T16:23:43;100230.84;;;21.44;41.71
1652;BME280;823;49.028;8.454;2023-05-01T16:28:43;100231.97;;;21.30;42.13
1652;BME280;823;49.028;8.454;2023-05-01T16:33:44;100245.31;;;21.06;42.28
1652;BME280;823;49.028;8.454;2023-05-01T16:38:45;100256.38;;;20.64;43.09
1652;BME280;823;49.028;8.454;2023-05-01T16:43:46;100267.81;;;20.18;47.26
1652;BME280;823;49.028;8.454;2023-05-01T16:48:46;100282.47;;;19.61;49.25
1652;BME280;823;49.028;8.454;2023-05-01T16:53:46;100275.41;;;19.13;51.52
1652;BME280;823;49.028;8.454;2023-05-01T16:58:47;100268.38;;;18.75;53.68
1652;BME280;823;49.028;8.454;2023-05-01T17:03:47;100245.47;;;18.40;55.03
1652;BME280;823;49.028;8.454;2023-05-01T17:08:48;100238.34;;;18.16;56.26
1652;BME280;823;49.028;8.454;2023-05-01T17:13:48;100215.38;;;17.94;57.74
1652;BME280;823;49.028;8.454;2023-05-01T17:18:49;100227.78;;;17.77;58.47
1652;BME280;823;49.028;8.454;2023-05-01T17:23:49;100242.25;;;17.56;58.56
1652;BME280;823;49.028;8.454;2023-05-01T17:28:50;100247.84;;;17.36;59.15
1652;BME280;823;49.028;8.454;2023-05-01T17:33:50;100248.47;;;17.40;59.93
1652;BME280;823;49.028;8.454;2023-05-01T17:38:50;100248.66;;;17.37;60.17
1652;BME280;823;49.028;8.454;2023-05-01T17:43:52;100252.84;;;17.40;59.96
1652;BME280;823;49.028;8.454;2023-05-01T17:48:54;100257.88;;;17.43;59.81
1652;BME280;823;49.028;8.454;2023-05-01T17:53:54;100259.53;;;17.31;59.66
1652;BME280;823;49.028;8.454;2023-05-01T17:58:55;100298.53;;;17.19;59.81
1652;BME280;823;49.028;8.454;2023-05-01T18:03:55;100301.94;;;16.93;60.58
1652;BME280;823;49.028;8.454;2023-05-01T18:08:56;100299.38;;;17.06;59.84
1652;BME280;823;49.028;8.454;2023-05-01T18:13:56;100303.44;;;17.11;59.84
1652;BME280;823;49.028;8.454;2023-05-01T18:18:57;100308.56;;;17.13;60.02
1652;BME280;823;49.028;8.454;2023-05-01T18:23:57;100309.91;;;17.33;59.20
1652;BME280;823;49.028;8.454;2023-05-01T18:28:58;100307.75;;;17.40;59.06
1652;BME280;823;49.028;8.454;2023-05-01T18:33:58;100310.81;;;17.46;59.44
1652;BME280;823;49.028;8.454;2023-05-01T18:38:58;100317.53;;;17.50;58.93
1652;BME280;823;49.028;8.454;2023-05-01T18:44:00;100316.06;;;17.46;58.95
1652;BME280;823;49.028;8.454;2023-05-01T18:49:00;100320.81;;;17.40;59.16
1652;BME280;823;49.028;8.454;2023-05-01T18:54:00;100328.31;;;17.31;59.23
1652;BME280;823;49.028;8.454;2023-05-01T18:59:01;100331.78;;;17.17;59.45
1652;BME280;823;49.028;8.454;2023-05-01T19:04:01;100345.69;;;17.18;59.19
1652;BME280;823;49.028;8.454;2023-05-01T19:09:01;100348.69;;;17.12;59.38
1652;BME280;823;49.028;8.454;2023-05-01T19:14:02;100352.41;;;17.08;59.27
1652;BME280;823;49.028;8.454;2023-05-01T19:19:02;100372.00;;;17.00;59.36
1652;BME280;823;49.028;8.454;2023-05-01T19:24:03;100380.09;;;16.96;59.22
1652;BME280;823;49.028;8.454;2023-05-01T19:29:03;100382.72;;;16.96;59.61
1652;BME280;823;49.028;8.454;2023-05-01T19:34:04;100390.75;;;16.93;59.51
1652;BME280;823;49.028;8.454;2023-05-01T19:39:04;100392.25;;;16.97;58.88
1652;BME280;823;49.028;8.454;2023-05-01T19:44:06;100398.41;;;16.96;59.46
1652;BME280;823;49.028;8.454;2023-05-01T19:49:07;100410.53;;;16.97;59.53
1652;BME280;823;49.028;8.454;2023-05-01T19:54:07;100409.78;;;16.95;59.53
1652;BME280;823;49.028;8.454;2023-05-01T19:59:07;100407.72;;;17.00;59.51
1652;BME280;823;49.028;8.454;2023-05-01T20:04:07;100415.56;;;17.00;59.27
1652;BME280;823;49.028;8.454;2023-05-01T20:09:08;100432.94;;;17.01;59.10
1652;BME280;823;49.028;8.454;2023-05-01T20:14:08;100429.84;;;16.94;59.71
1652;BME280;823;49.028;8.454;2023-05-01T20:19:08;100440.38;;;16.93;59.33
1652;BME280;823;49.028;8.454;2023-05-01T20:24:09;100441.16;;;16.95;59.04
1652;BME280;823;49.028;8.454;2023-05-01T20:29:10;100450.94;;;16.91;58.93
1652;BME280;823;49.028;8.454;2023-05-01T20:34:10;100459.69;;;16.90;59.33
1652;BME280;823;49.028;8.454;2023-05-01T20:39:11;100455.63;;;16.84;59.67
1652;BME280;823;49.028;8.454;2023-05-01T20:44:11;100468.59;;;16.86;59.41
1652;BME280;823;49.028;8.454;2023-05-01T20:49:11;100469.63;;;16.83;59.43
1652;BME280;823;49.028;8.454;2023-05-01T20:54:12;100477.22;;;16.72;59.78
1652;BME280;823;49.028;8.454;2023-05-01T20:59:12;100481.81;;;16.68;59.62
1652;BME280;823;49.028;8.454;2023-05-01T21:04:12;100481.63;;;16.72;59.64
1652;BME280;823;49.028;8.454;2023-05-01T21:09:13;100481.53;;;16.73;59.80
1652;BME280;823;49.028;8.454;2023-05-01T21:14:14;100494.97;;;16.67;59.95
1652;BME280;823;49.028;8.454;2023-05-01T21:19:15;100494.78;;;16.70;60.40
1652;BME280;823;49.028;8.454;2023-05-01T21:24:19;100495.44;;;16.74;60.14
1652;BME280;823;49.028;8.454;2023-05-01T21:29:20;100496.44;;;16.71;59.72
1652;BME280;823;49.028;8.454;2023-05-01T21:34:20;100508.56;;;16.72;60.06
1652;BME280;823;49.028;8.454;2023-05-01T21:39:21;100515.50;;;16.73;59.69
1652;BME280;823;49.028;8.454;2023-05-01T21:44:28;100506.06;;;16.71;59.54
1652;BME280;823;49.028;8.454;2023-05-01T21:49:29;100503.44;;;16.71;59.70
1652;BME280;823;49.028;8.454;2023-05-01T21:54:29;100508.75;;;16.69;59.71
1652;BME280;823;49.028;8.454;2023-05-01T21:59:39;100514.50;;;16.60;60.12
1652;BME280;823;49.028;8.454;2023-05-01T22:04:39;100510.13;;;16.60;60.05
1652;BME280;823;49.028;8.454;2023-05-01T22:09:40;100514.50;;;16.60;60.15
1652;BME280;823;49.028;8.454;2023-05-01T22:14:40;100521.91;;;16.51;60.48
1652;BME280;823;49.028;8.454;2023-05-01T22:19:40;100527.91;;;16.54;60.38
1652;BME280;823;49.028;8.454;2023-05-01T22:24:41;100526.13;;;16.54;60.71
1652;BME280;823;49.028;8.454;2023-05-01T22:29:41;100533.13;;;16.54;60.43
1652;BME280;823;49.028;8.454;2023-05-01T22:34:41;100543.81;;;16.49;60.57
1652;BME280;823;49.028;8.454;2023-05-01T22:39:42;100549.97;;;16.48;60.43
1652;BME280;823;49.028;8.454;2023-05-01T22:44:42;100552.06;;;16.41;60.36
1652;BME280;823;49.028;8.454;2023-05-01T22:49:42;100555.09;;;16.33;60.47
1652;BME280;823;49.028;8.454;2023-05-01T22:54:43;100555.25;;;16.30;60.15
1652;BME280;823;49.028;8.454;2023-05-01T22:59:43;100553.91;;;16.23;60.22
1652;BME280;823;49.028;8.454;2023-05-01T23:04:44;100548.34;;;16.13;60.48
1652;BME280;823;49.028;8.454;2023-05-01T23:09:45;100547.56;;;16.11;60.20
1652;BME280;823;49.028;8.454;2023-05-01T23:14:45;100557.75;;;16.00;60.15
1652;BME280;823;49.028;8.454;2023-05-01T23:19:46;100564.13;;;15.94;60.20
1652;BME280;823;49.028;8.454;2023-05-01T23:24:47;100557.47;;;15.89;60.23
1652;BME280;823;49.028;8.454;2023-05-01T23:29:51;100560.56;;;15.79;60.31
1652;BME280;823;49.028;8.454;2023-05-01T23:35:02;100566.00;;;15.75;60.19
1652;BME280;823;49.028;8.454;2023-05-01T23:40:04;100557.09;;;15.61;60.36
1652;BME280;823;49.028;8.454;2023-05-01T23:45:06;100575.59;;;15.57;60.03
1652;BME280;823;49.028;8.454;2023-05-01T23:50:07;100572.84;;;15.42;60.54
1652;BME280;823;49.028;8.454;2023-05-01T23:55:08;100581.69;;;15.40;60.32
